Time;durP1;ratioP1;P1;durP2;ratioP2;P2;SDS_P1;SDS_P2;PMS_P1;PMS_P2;Temp;Humidity;BMP_temperature;BMP_pressure;BME280_temperature;BME280_humidity;BME280_pressure;Samples;Min_cycle;Max_cycle;Signal;HPM_P1;HPM_P2
2022/11/10 00:00:33;;;;;;;4.38;2.30;;;13.90;99.90;;;;;;5001095;28;20026;-69
2022/11/10 00:03:04;;;;;;;4.32;2.05;;;13.90;99.90;;;;;;4999056;28;20037;-69
2022/11/10 00:05:31;;;;;;;4.03;1.70;;;14.00;99.90;;;;;;4999837;28;20072;-69
2022/11/10 00:08:01;;;;;;;4.63;2.28;;;13.90;99.90;;;;;;4997813;28;21035;-69
2022/11/10 00:10:26;;;;;;;4.20;1.80;;;13.90;99.90;;;;;;4999516;28;20053;-69
2022/11/10 00:12:52;;;;;;;4.90;2.30;;;14.00;99.90;;;;;;5002967;28;20053;-69
2022/11/10 00:18:04;;;;;;;4.25;2.08;;;14.00;99.80;;;;;;4999255;28;20557;-69
2022/11/10 00:20:30;;;;;;;4.38;2.03;;;14.00;99.80;;;;;;4999780;28;20393;-69
2022/11/10 00:22:56;;;;;;;3.55;2.15;;;14.00;99.80;;;;;;5002952;28;20118;-69
2022/11/10 00:25:22;;;;;;;4.13;2.40;;;14.00;99.80;;;;;;5000536;28;20039;-69
2022/11/10 00:27:48;;;;;;;10.57;2.53;;;14.00;99.80;;;;;;5001259;28;20034;-68
2022/11/10 00:30:14;;;;;;;4.55;2.30;;;14.00;99.80;;;;;;5002146;28;20032;-68
2022/11/10 00:32:40;;;;;;;3.70;1.75;;;14.00;99.80;;;;;;5003200;28;20049;-68
2022/11/10 00:35:06;;;;;;;3.63;2.28;;;14.00;99.70;;;;;;5003406;28;20076;-68
2022/11/10 00:37:32;;;;;;;6.10;2.25;;;14.00;99.70;;;;;;5002108;28;20042;-68
2022/11/10 00:39:58;;;;;;;3.65;1.77;;;14.00;99.70;;;;;;5002440;28;20040;-69
2022/11/10 00:42:24;;;;;;;3.72;2.15;;;14.00;99.70;;;;;;5004087;28;20053;-68
2022/11/10 00:44:50;;;;;;;4.50;2.20;;;14.10;99.70;;;;;;5001799;28;20095;-68
2022/11/10 00:47:16;;;;;;;5.53;2.88;;;14.10;99.70;;;;;;5003066;28;20022;-69
2022/11/10 00:49:42;;;;;;;6.28;2.60;;;14.10;99.60;;;;;;5002254;28;20058;-68
2022/11/10 00:52:07;;;;;;;3.80;2.40;;;14.10;99.50;;;;;;5003954;28;20036;-69
2022/11/10 00:54:33;;;;;;;4.80;2.33;;;14.10;99.50;;;;;;5002071;28;20392;-69
2022/11/10 00:56:58;;;;;;;4.40;1.90;;;14.10;99.40;;;;;;5003354;28;20045;-69
2022/11/10 00:59:24;;;;;;;2.80;1.83;;;14.20;99.40;;;;;;5002837;28;20068;-69
2022/11/10 01:01:50;;;;;;;5.50;1.90;;;14.20;99.40;;;;;;5002587;28;20030;-69
2022/11/10 01:04:15;;;;;;;3.58;1.95;;;14.20;99.30;;;;;;5002787;28;20022;-69
2022/11/10 01:06:41;;;;;;;3.05;1.75;;;14.30;99.30;;;;;;5003257;28;20038;-69
2022/11/10 01:09:07;;;;;;;6.70;2.30;;;14.30;99.20;;;;;;5003203;28;20045;-69
2022/11/10 01:11:32;;;;;;;5.85;1.90;;;14.30;99.10;;;;;;5002024;28;20119;-69
2022/11/10 01:13:58;;;;;;;3.28;1.98;;;14.30;99.10;;;;;;5001612;28;20022;-69
2022/11/10 01:16:29;;;;;;;4.68;2.00;;;14.30;99.00;;;;;;5008417;28;20123;-69
2022/11/10 01:18:59;;;;;;;4.45;1.70;;;14.30;99.00;;;;;;5001598;28;20034;-69
2022/11/10 01:21:27;;;;;;;5.28;2.25;;;14.40;98.90;;;;;;5000101;28;20038;-68
2022/11/10 01:23:53;;;;;;;5.93;2.08;;;14.40;98.90;;;;;;5000209;28;20124;-69
2022/11/10 01:26:19;;;;;;;3.58;1.65;;;14.40;98.80;;;;;;5002004;28;20041;-69
2022/11/10 01:28:45;;;;;;;5.18;2.05;;;14.40;99.00;;;;;;5001891;28;20040;-68
2022/11/10 01:31:14;;;;;;;3.20;1.80;;;14.40;98.80;;;;;;5001241;28;20110;-69
2022/11/10 01:33:40;;;;;;;4.10;1.90;;;14.40;98.70;;;;;;5001386;28;20065;-69
2022/11/10 01:36:08;;;;;;;4.22;2.13;;;14.50;98.70;;;;;;5004151;28;20038;-69
2022/11/10 01:38:36;;;;;;;2.97;1.67;;;14.50;98.70;;;;;;5003433;28;20469;-68
2022/11/10 01:41:04;;;;;;;3.15;1.70;;;14.50;98.70;;;;;;5000326;28;20095;-68
2022/11/10 01:43:31;;;;;;;3.60;2.10;;;14.50;98.70;;;;;;5005674;28;20097;-67
2022/11/10 01:46:05;;;;;;;3.97;1.83;;;14.50;98.70;;;;;;5002563;28;20156;-68
2022/11/10 01:48:46;;;;;;;4.50;1.55;;;14.40;98.70;;;;;;5001404;28;20032;-68
2022/11/10 01:51:36;;;;;;;3.42;1.63;;;14.40;98.70;;;;;;5008489;28;20131;-68
2022/11/10 01:54:26;;;;;;;5.40;2.15;;;14.50;98.80;;;;;;4997022;28;20089;-69
2022/11/10 01:56:57;;;;;;;3.03;1.80;;;14.40;98.60;;;;;;5002242;28;20068;-68
2022/11/10 01:59:27;;;;;;;4.50;2.00;;;14.40;98.60;;;;;;5001792;28;20117;-68
2022/11/10 02:01:57;;;;;;;5.63;2.50;;;14.40;98.60;;;;;;4999745;28;20636;-67
2022/11/10 02:04:24;;;;;;;3.15;1.67;;;14.40;98.70;;;;;;5000739;28;20053;-68
2022/11/10 02:06:50;;;;;;;3.95;1.70;;;14.40;98.70;;;;;;4999579;28;20434;-68
2022/11/10 02:09:16;;;;;;;6.53;2.10;;;14.40;98.70;;;;;;5001981;28;20516;-68
2022/11/10 02:11:43;;;;;;;3.50;1.60;;;14.40;98.60;;;;;;5001601;28;20041;-68
2022/11/10 02:14:11;;;;;;;3.42;1.80;;;14.40;98.60;;;;;;5017915;28;20022;-69
2022/11/10 02:16:38;;;;;;;3.20;1.58;;;14.40;98.60;;;;;;5001742;28;20051;-68
2022/11/10 02:19:21;;;;;;;3.78;1.63;;;14.40;98.60;;;;;;5001405;28;20105;-68
2022/11/10 02:21:47;;;;;;;3.30;1.85;;;14.40;98.80;;;;;;5001690;28;20053;-68
2022/11/10 02:24:14;;;;;;;6.10;2.60;;;14.30;98.60;;;;;;5000067;28;20037;-69
2022/11/10 02:26:51;;;;;;;3.97;1.50;;;14.30;98.50;;;;;;5000615;28;20473;-69
2022/11/10 02:29:17;;;;;;;4.35;1.92;;;14.30;98.50;;;;;;5001120;28;20038;-69
2022/11/10 02:31:43;;;;;;;3.85;1.70;;;14.30;98.50;;;;;;5001184;28;20034;-69
2022/11/10 02:34:09;;;;;;;3.35;1.98;;;14.30;98.50;;;;;;4999324;28;20084;-69
2022/11/10 02:36:35;;;;;;;3.22;1.80;;;14.20;98.50;;;;;;5000618;28;20038;-69
2022/11/10 02:39:00;;;;;;;4.32;2.00;;;14.20;98.50;;;;;;5002171;28;20078;-69
2022/11/10 02:41:26;;;;;;;7.15;1.88;;;14.20;98.50;;;;;;5000123;28;20041;-69
2022/11/10 02:43:54;;;;;;;4.32;1.80;;;14.20;98.40;;;;;;4997904;28;20518;-69
2022/11/10 02:46:20;;;;;;;3.03;1.60;;;14.20;98.50;;;;;;4999375;28;20034;-69
2022/11/10 02:48:47;;;;;;;6.05;2.53;;;14.20;98.50;;;;;;4998742;28;20389;-68
2022/11/10 02:51:13;;;;;;;4.28;2.03;;;14.20;98.50;;;;;;4998607;28;20637;-69
2022/11/10 02:53:38;;;;;;;5.68;1.80;;;14.30;98.50;;;;;;5000983;28;20030;-69
2022/11/10 02:56:05;;;;;;;2.80;1.50;;;14.20;98.40;;;;;;4999070;28;20446;-69
2022/11/10 02:58:31;;;;;;;5.32;1.83;;;14.20;98.40;;;;;;5001016;28;20079;-69
2022/11/10 03:00:57;;;;;;;7.70;1.80;;;14.20;98.30;;;;;;5001215;28;21853;-69
2022/11/10 03:03:22;;;;;;;3.25;1.58;;;14.30;98.40;;;;;;5000099;28;20060;-68
2022/11/10 03:05:48;;;;;;;4.30;2.10;;;14.20;98.30;;;;;;5000350;28;20034;-68
2022/11/10 03:08:14;;;;;;;4.60;1.60;;;14.20;98.20;;;;;;5001442;28;20037;-69
2022/11/10 03:10:39;;;;;;;4.13;1.98;;;14.30;98.20;;;;;;5003281;28;20156;-68
2022/11/10 03:13:05;;;;;;;4.55;2.28;;;14.20;98.20;;;;;;5001091;28;20037;-68
2022/11/10 03:15:31;;;;;;;5.72;1.80;;;14.20;98.10;;;;;;5000823;28;20482;-68
2022/11/10 03:18:03;;;;;;;3.80;1.90;;;14.30;98.20;;;;;;4999706;28;20033;-68
2022/11/10 03:20:28;;;;;;;6.60;2.30;;;14.30;98.10;;;;;;4999889;28;20034;-69
2022/11/10 03:23:00;;;;;;;5.28;2.00;;;14.30;98.10;;;;;;5000690;28;20498;-68
2022/11/10 03:25:25;;;;;;;6.38;2.45;;;14.30;98.00;;;;;;4998226;28;20080;-68
2022/11/10 03:27:51;;;;;;;8.38;2.60;;;14.20;98.00;;;;;;4998851;28;20034;-69
2022/11/10 03:30:16;;;;;;;4.78;2.15;;;14.20;98.00;;;;;;4999004;28;20442;-69
2022/11/10 03:32:42;;;;;;;4.18;1.95;;;14.20;98.00;;;;;;4999594;28;20029;-72
2022/11/10 03:35:08;;;;;;;5.75;2.33;;;14.20;98.00;;;;;;4999999;28;20300;-71
2022/11/10 03:37:34;;;;;;;5.22;2.08;;;14.30;98.00;;;;;;4997779;28;20042;-71
2022/11/10 03:40:00;;;;;;;5.00;2.03;;;14.20;98.00;;;;;;4999070;28;20052;-71
2022/11/10 03:42:26;;;;;;;3.58;2.03;;;14.20;97.90;;;;;;5000917;28;20045;-70
2022/11/10 03:44:52;;;;;;;4.05;2.10;;;14.20;97.90;;;;;;4998771;28;20131;-70
2022/11/10 03:47:23;;;;;;;6.88;2.13;;;14.20;97.80;;;;;;4999036;28;20038;-70
2022/11/10 03:49:49;;;;;;;4.70;2.58;;;14.20;97.90;;;;;;4999139;28;20026;-71
2022/11/10 03:52:14;;;;;;;4.68;1.92;;;14.20;97.90;;;;;;4997878;28;20049;-71
2022/11/10 03:54:40;;;;;;;4.80;2.15;;;14.20;97.90;;;;;;4999586;28;20034;-70
2022/11/10 03:57:07;;;;;;;6.20;2.25;;;14.20;97.90;;;;;;4998109;28;20041;-70
2022/11/10 03:59:32;;;;;;;5.78;2.00;;;14.20;97.80;;;;;;4998509;28;20033;-71
2022/11/10 04:01:58;;;;;;;4.68;2.13;;;14.20;97.80;;;;;;4996165;28;20511;-71
2022/11/10 04:09:56;;;;;;;4.90;2.17;;;14.10;97.90;;;;;;5003490;28;20358;-71
2022/11/10 04:18:19;;;;;;;4.60;2.13;;;14.10;97.90;;;;;;5001485;28;20089;-70
2022/11/10 04:20:40;;;;;;;5.25;2.63;;;14.00;97.80;;;;;;4999614;28;20033;-71
2022/11/10 04:28:35;;;;;;;6.15;2.10;;;14.00;97.90;;;;;;4999016;28;20060;-71
2022/11/10 04:31:00;;;;;;;5.97;2.08;;;13.90;97.90;;;;;;4999052;28;20485;-70
2022/11/10 04:33:26;;;;;;;6.43;2.75;;;13.90;98.00;;;;;;4999000;28;20110;-71
2022/11/10 04:35:52;;;;;;;4.88;2.20;;;13.90;97.90;;;;;;4999650;28;20041;-71
2022/11/10 04:38:19;;;;;;;8.10;2.47;;;13.90;97.90;;;;;;4998718;28;20035;-70
2022/11/10 04:40:44;;;;;;;6.28;2.30;;;13.90;97.90;;;;;;5000155;28;20068;-70
2022/11/10 04:43:10;;;;;;;6.38;2.30;;;13.90;98.00;;;;;;4997890;28;20049;-71
2022/11/10 04:45:37;;;;;;;7.80;2.40;;;13.80;97.90;;;;;;4999114;28;20026;-71
2022/11/10 04:48:02;;;;;;;8.57;2.70;;;13.80;98.00;;;;;;4998523;28;20069;-71
2022/11/10 04:50:30;;;;;;;4.88;2.50;;;13.70;98.00;;;;;;4998418;28;20072;-70
2022/11/10 04:52:56;;;;;;;5.25;2.13;;;13.70;98.00;;;;;;4994961;28;20042;-71
2022/11/10 04:55:22;;;;;;;4.93;2.33;;;13.80;98.10;;;;;;4999631;28;20026;-70
2022/11/10 04:57:47;;;;;;;8.55;2.28;;;13.70;98.10;;;;;;4996893;28;20042;-70
2022/11/10 05:00:14;;;;;;;5.38;2.60;;;13.70;98.10;;;;;;5000924;28;20022;-71
2022/11/10 05:02:40;;;;;;;4.75;2.13;;;13.70;98.10;;;;;;4999903;28;20168;-71
2022/11/10 05:05:06;;;;;;;7.05;2.22;;;13.70;98.10;;;;;;4998516;28;20117;-71
2022/11/10 05:07:31;;;;;;;5.43;2.22;;;13.70;98.10;;;;;;4998068;28;20545;-71
2022/11/10 05:09:57;;;;;;;7.35;2.35;;;13.60;98.10;;;;;;4998572;28;20034;-71
2022/11/10 05:12:23;;;;;;;3.55;1.80;;;13.60;98.20;;;;;;5002518;28;20397;-71
2022/11/10 05:14:48;;;;;;;11.60;3.45;;;13.60;98.20;;;;;;5001892;28;20040;-71
2022/11/10 05:17:14;;;;;;;5.05;2.42;;;13.60;98.20;;;;;;5002520;28;20446;-71
2022/11/10 05:19:39;;;;;;;7.03;2.28;;;13.60;98.20;;;;;;5001463;28;20029;-71
2022/11/10 05:22:06;;;;;;;4.97;2.45;;;13.50;98.20;;;;;;5017146;28;20099;-71
2022/11/10 05:24:32;;;;;;;5.03;2.10;;;13.50;98.30;;;;;;5001876;28;20025;-72
2022/11/10 05:26:58;;;;;;;5.70;2.60;;;13.50;98.40;;;;;;5003658;28;20112;-72
2022/11/10 05:29:24;;;;;;;6.70;2.45;;;13.50;98.40;;;;;;5002805;28;20160;-72
2022/11/10 05:31:51;;;;;;;9.52;3.05;;;13.40;98.40;;;;;;5001938;28;20044;-71
2022/11/10 05:34:16;;;;;;;4.47;3.15;;;13.40;98.40;;;;;;5001248;28;21972;-72
2022/11/10 05:36:42;;;;;;;4.30;2.55;;;13.40;98.50;;;;;;5002552;28;20041;-72
2022/11/10 05:39:07;;;;;;;5.93;2.55;;;13.40;98.50;;;;;;5000255;28;20036;-72
2022/11/10 05:41:33;;;;;;;6.35;2.83;;;13.40;98.50;;;;;;5002326;28;20132;-71
2022/11/10 05:43:58;;;;;;;5.47;2.25;;;13.40;98.60;;;;;;5001403;28;20042;-71
2022/11/10 05:46:24;;;;;;;5.10;2.42;;;13.30;98.60;;;;;;5001728;28;20069;-72
2022/11/10 05:48:50;;;;;;;5.82;2.10;;;13.30;98.60;;;;;;5003750;28;20026;-71
2022/11/10 05:51:16;;;;;;;6.43;2.60;;;13.30;98.60;;;;;;4999900;28;20044;-71
2022/11/10 05:53:42;;;;;;;7.03;3.50;;;13.30;98.60;;;;;;5002794;28;20366;-71
2022/11/10 05:56:07;;;;;;;5.95;2.70;;;13.30;98.70;;;;;;5002549;28;20064;-71
2022/11/10 05:58:33;;;;;;;5.32;2.42;;;13.30;98.70;;;;;;5015664;28;20033;-71
2022/11/10 06:00:59;;;;;;;8.35;2.75;;;13.20;98.70;;;;;;5001848;28;20489;-71
2022/11/10 06:03:24;;;;;;;10.93;3.00;;;13.20;98.70;;;;;;5001833;28;20057;-71
2022/11/10 06:05:50;;;;;;;5.00;3.25;;;13.20;98.80;;;;;;5001142;28;20023;-71
2022/11/10 06:08:16;;;;;;;8.60;2.72;;;13.20;98.90;;;;;;5001955;28;20532;-71
2022/11/10 06:10:42;;;;;;;5.30;2.45;;;13.20;98.80;;;;;;5004976;28;20030;-71
2022/11/10 06:13:09;;;;;;;7.32;2.90;;;13.10;98.80;;;;;;5002718;28;20664;-71
2022/11/10 06:15:35;;;;;;;6.05;2.25;;;13.10;98.90;;;;;;4999452;28;20141;-71
2022/11/10 06:18:01;;;;;;;5.82;3.10;;;13.10;98.90;;;;;;5001124;28;20033;-70
2022/11/10 06:20:27;;;;;;;4.38;2.75;;;13.10;98.90;;;;;;5000617;28;20033;-72
2022/11/10 06:23:10;;;;;;;5.00;2.88;;;13.10;98.90;;;;;;5001033;28;20975;-72
2022/11/10 06:25:38;;;;;;;7.20;2.63;;;13.00;98.90;;;;;;4998588;28;20038;-74
2022/11/10 06:28:06;;;;;;;6.13;2.88;;;13.00;99.00;;;;;;5000083;28;20045;-71
2022/11/10 06:30:34;;;;;;;10.23;4.18;;;13.00;99.00;;;;;;4999281;28;20555;-71
2022/11/10 06:33:02;;;;;;;6.35;3.05;;;13.00;99.00;;;;;;5000054;28;20085;-71
2022/11/10 06:35:29;;;;;;;9.07;3.33;;;13.00;99.10;;;;;;5000914;28;20109;-71
2022/11/10 06:38:00;;;;;;;9.50;3.40;;;13.00;99.10;;;;;;5000004;28;20038;-71
2022/11/10 06:40:25;;;;;;;7.20;2.90;;;13.00;99.10;;;;;;5003967;28;22235;-71
2022/11/10 06:42:51;;;;;;;6.35;2.78;;;13.00;99.20;;;;;;5004674;28;20034;-71
2022/11/10 06:45:17;;;;;;;6.22;3.10;;;13.00;99.30;;;;;;5001967;28;20382;-70
2022/11/10 06:47:42;;;;;;;10.55;3.25;;;13.00;99.20;;;;;;4999601;28;20041;-70
2022/11/10 06:50:08;;;;;;;6.07;2.63;;;13.00;99.20;;;;;;4999042;28;20429;-70
2022/11/10 06:52:35;;;;;;;6.47;3.50;;;13.00;99.20;;;;;;5003003;28;20057;-67
2022/11/10 06:55:00;;;;;;;6.38;2.50;;;12.90;99.20;;;;;;4999909;28;20109;-68
2022/11/10 06:57:28;;;;;;;5.07;2.83;;;13.00;99.30;;;;;;5000491;28;20061;-69
2022/11/10 06:59:54;;;;;;;8.90;3.53;;;13.00;99.30;;;;;;5000534;28;20482;-69
2022/11/10 07:02:20;;;;;;;10.88;3.33;;;13.00;99.30;;;;;;5000570;28;20108;-69
2022/11/10 07:04:46;;;;;;;10.20;3.55;;;13.00;99.30;;;;;;4998381;28;20041;-70
2022/11/10 07:07:13;;;;;;;9.75;3.42;;;13.00;99.30;;;;;;4997735;28;20401;-70
2022/11/10 07:09:38;;;;;;;8.95;3.30;;;13.00;99.40;;;;;;4996779;28;20033;-70
2022/11/10 07:12:05;;;;;;;9.52;3.45;;;13.00;99.40;;;;;;4999523;28;20037;-70
2022/11/10 07:14:31;;;;;;;8.98;4.00;;;13.00;99.40;;;;;;4997804;28;20030;-69
2022/11/10 07:16:57;;;;;;;5.85;2.95;;;13.00;99.40;;;;;;5002116;28;20049;-68
2022/11/10 07:19:22;;;;;;;9.77;3.38;;;13.10;99.40;;;;;;5001788;28;20030;-69
2022/11/10 07:21:48;;;;;;;5.63;2.88;;;13.10;99.40;;;;;;5002187;28;20029;-69
2022/11/10 07:24:14;;;;;;;7.25;3.00;;;13.10;99.40;;;;;;4998059;28;20022;-70
2022/11/10 07:26:41;;;;;;;8.77;2.85;;;13.20;99.50;;;;;;4998221;28;20614;-70
2022/11/10 07:29:06;;;;;;;6.63;3.17;;;13.30;99.50;;;;;;4998842;28;20034;-69
2022/11/10 07:31:33;;;;;;;6.40;3.90;;;13.30;99.40;;;;;;4999858;28;20034;-70
2022/11/10 07:33:58;;;;;;;10.93;3.47;;;13.30;99.40;;;;;;4998406;28;20108;-70
2022/11/10 07:36:27;;;;;;;6.55;2.70;;;13.40;99.40;;;;;;4999015;28;20033;-69
2022/11/10 07:38:54;;;;;;;8.25;3.10;;;13.40;99.40;;;;;;5000517;28;20041;-69
2022/11/10 07:41:20;;;;;;;6.68;3.25;;;13.40;99.30;;;;;;5001021;28;20022;-70
2022/11/10 07:43:46;;;;;;;13.18;3.88;;;13.50;99.30;;;;;;4998321;28;22409;-70
2022/11/10 07:46:11;;;;;;;10.93;3.22;;;13.40;99.20;;;;;;4998931;28;20892;-69
2022/11/10 07:48:37;;;;;;;7.60;3.15;;;13.50;99.20;;;;;;4997587;28;20099;-69
2022/11/10 07:51:03;;;;;;;8.13;3.55;;;13.50;99.20;;;;;;5000542;28;20034;-70
2022/11/10 07:53:29;;;;;;;6.78;2.95;;;13.50;99.20;;;;;;4999337;28;20060;-69
2022/11/10 07:55:57;;;;;;;9.60;3.17;;;13.50;99.20;;;;;;4997757;28;20071;-70
2022/11/10 07:58:22;;;;;;;10.80;4.70;;;13.50;99.20;;;;;;4998276;28;20040;-70
2022/11/10 08:00:48;;;;;;;7.35;3.38;;;13.50;99.20;;;;;;4999669;28;20034;-69
2022/11/10 08:03:19;;;;;;;8.57;3.60;;;13.60;99.20;;;;;;4999025;28;20026;-70
2022/11/10 08:05:45;;;;;;;8.07;3.60;;;13.50;99.20;;;;;;4998492;28;20027;-69
2022/11/10 08:08:12;;;;;;;9.18;3.90;;;13.50;99.20;;;;;;4997540;28;20036;-68
2022/11/10 08:10:40;;;;;;;6.80;3.05;;;13.50;99.20;;;;;;4998574;28;20661;-70
2022/11/10 08:13:08;;;;;;;8.48;3.25;;;13.50;99.20;;;;;;5001540;28;20045;-70
2022/11/10 08:15:36;;;;;;;7.80;4.03;;;13.50;99.20;;;;;;4997442;28;20030;-69
2022/11/10 08:18:06;;;;;;;7.88;3.50;;;13.50;99.20;;;;;;5000489;28;20049;-69
2022/11/10 08:20:33;;;;;;;6.20;2.83;;;13.50;99.20;;;;;;4998119;28;20051;-69
2022/11/10 08:23:00;;;;;;;8.45;4.20;;;13.60;99.20;;;;;;5001498;28;20025;-69
2022/11/10 08:25:28;;;;;;;10.10;3.63;;;13.60;99.20;;;;;;4998837;28;20489;-69
2022/11/10 08:28:06;;;;;;;10.98;3.55;;;13.60;99.20;;;;;;4999611;28;20103;-69
2022/11/10 08:30:34;;;;;;;7.65;3.53;;;13.70;99.20;;;;;;4999360;28;20698;-70
2022/11/10 08:33:01;;;;;;;7.90;3.08;;;13.70;99.20;;;;;;5000070;28;20117;-70
2022/11/10 08:35:29;;;;;;;6.18;3.28;;;13.70;99.20;;;;;;4999353;28;20038;-70
2022/11/10 08:37:55;;;;;;;8.88;3.42;;;13.70;99.10;;;;;;4999319;28;20489;-70
2022/11/10 08:40:22;;;;;;;8.10;3.67;;;13.70;99.10;;;;;;4999299;28;20469;-70
2022/11/10 08:42:58;;;;;;;6.25;3.83;;;13.70;99.10;;;;;;4997869;28;20081;-71
2022/11/10 08:45:25;;;;;;;10.18;3.70;;;13.70;99.10;;;;;;4997713;28;20041;-70
2022/11/10 08:47:58;;;;;;;10.70;3.75;;;13.80;99.10;;;;;;4999122;28;20034;-71
2022/11/10 08:50:25;;;;;;;9.18;3.33;;;13.80;99.10;;;;;;5002048;28;20589;-70
2022/11/10 08:52:51;;;;;;;10.20;4.25;;;13.90;99.10;;;;;;5004010;28;20068;-70
2022/11/10 08:55:18;;;;;;;12.43;3.60;;;13.90;99.10;;;;;;5001247;28;20120;-70
2022/11/10 08:57:46;;;;;;;5.85;3.17;;;13.90;99.10;;;;;;5005779;28;20038;-70
2022/11/10 09:00:16;;;;;;;8.60;3.80;;;14.00;99.00;;;;;;5002654;28;20436;-69
2022/11/10 09:02:43;;;;;;;7.78;3.97;;;14.00;99.00;;;;;;5001877;28;20046;-68
2022/11/10 09:05:09;;;;;;;8.15;3.50;;;14.10;98.90;;;;;;5001302;28;20113;-68
2022/11/10 09:07:48;;;;;;;10.20;4.15;;;14.10;98.90;;;;;;5001050;28;20038;-69
2022/11/10 09:10:14;;;;;;;7.95;3.53;;;14.10;98.80;;;;;;4999803;28;20036;-67
2022/11/10 09:12:41;;;;;;;8.65;3.92;;;14.10;98.80;;;;;;5002301;28;20053;-67
2022/11/10 09:15:08;;;;;;;9.85;4.00;;;14.10;98.80;;;;;;5002075;28;20034;-67
2022/11/10 09:17:34;;;;;;;8.52;3.70;;;14.20;98.80;;;;;;5002865;28;20069;-67
2022/11/10 09:20:00;;;;;;;9.32;3.67;;;14.20;98.70;;;;;;5001422;28;20155;-67
2022/11/10 09:22:26;;;;;;;7.72;3.85;;;14.30;98.70;;;;;;5002257;28;20607;-67
2022/11/10 09:24:51;;;;;;;5.45;3.58;;;14.30;98.70;;;;;;5000990;28;20056;-67
2022/11/10 09:27:17;;;;;;;8.80;3.92;;;14.30;98.60;;;;;;5002421;28;20037;-66
2022/11/10 09:29:43;;;;;;;11.68;4.15;;;14.40;98.80;;;;;;5000255;28;20027;-67
2022/11/10 09:32:09;;;;;;;8.65;3.78;;;14.40;98.60;;;;;;5001783;28;20030;-67
2022/11/10 09:34:34;;;;;;;10.57;3.53;;;14.40;98.50;;;;;;5001034;28;20049;-67
2022/11/10 09:37:00;;;;;;;8.90;3.70;;;14.40;98.70;;;;;;4999229;28;20037;-67
2022/11/10 09:39:26;;;;;;;10.10;3.75;;;14.50;98.60;;;;;;5000987;28;20022;-67
2022/11/10 09:41:52;;;;;;;8.18;3.45;;;14.50;98.50;;;;;;4999729;28;20106;-67
2022/11/10 09:44:25;;;;;;;8.40;4.20;;;14.50;98.40;;;;;;4999464;28;20050;-67
2022/11/10 09:47:00;;;;;;;9.60;3.85;;;14.50;98.40;;;;;;4999882;28;20121;-67
2022/11/10 09:49:31;;;;;;;;;;;14.50;98.40;;;;;;4999841;28;20095;-67
2022/11/10 09:51:58;;;;;;;8.07;3.63;;;14.50;98.50;;;;;;4999621;28;19922;-67
2022/11/10 09:54:43;;;;;;;8.90;3.80;;;14.50;98.40;;;;;;5001745;28;20045;-67
2022/11/10 09:57:17;;;;;;;7.10;3.13;;;14.50;98.40;;;;;;4999555;28;20076;-68
2022/11/10 09:59:43;;;;;;;12.52;4.15;;;14.50;98.40;;;;;;5001807;28;20046;-67
2022/11/10 10:02:40;;;;;;;7.88;3.50;;;14.50;98.40;;;;;;5001793;28;20038;-67
2022/11/10 10:05:21;;;;;;;9.70;4.07;;;14.50;98.40;;;;;;4998929;28;20030;-67
2022/11/10 10:08:06;;;;;;;12.27;3.28;;;14.50;98.30;;;;;;5000150;28;20030;-70
2022/11/10 10:10:36;;;;;;;5.22;3.00;;;14.60;98.40;;;;;;5001186;28;20038;-72
2022/11/10 10:13:26;;;;;;;8.00;3.63;;;14.60;98.30;;;;;;5005482;28;20053;-70
2022/11/10 10:16:12;;;;;;;11.10;4.20;;;14.60;98.30;;;;;;5001555;28;20077;-70
2022/11/10 10:18:58;;;;;;;7.55;3.55;;;14.60;98.30;;;;;;5000981;28;20978;-68
2022/11/10 10:21:46;;;;;;;5.95;3.40;;;14.70;98.30;;;;;;5001645;28;20030;-69
2022/11/10 10:24:15;;;;;;;7.07;2.80;;;14.70;98.20;;;;;;5001478;28;20413;-70
2022/11/10 10:26:52;;;;;;;13.52;4.75;;;14.80;98.20;;;;;;5001953;28;20034;-69
2022/11/10 10:29:23;;;;;;;8.98;3.30;;;14.80;98.10;;;;;;5001330;28;20029;-69
2022/11/10 10:31:53;;;;;;;8.80;3.47;;;14.80;98.10;;;;;;5000462;28;20113;-69
2022/11/10 10:34:28;;;;;;;11.93;3.88;;;14.90;98.20;;;;;;5001963;28;20061;-69
2022/11/10 10:36:53;;;;;;;10.00;3.35;;;14.90;98.00;;;;;;5002072;28;20129;-69
2022/11/10 10:39:30;;;;;;;7.53;3.55;;;14.90;98.00;;;;;;5000288;28;20492;-70
2022/11/10 10:41:57;;;;;;;10.07;3.83;;;15.00;98.10;;;;;;5000543;28;20125;-70
2022/11/10 10:44:22;;;;;;;8.82;4.22;;;15.10;98.00;;;;;;5000175;28;20128;-69
2022/11/10 10:46:54;;;;;;;7.75;3.42;;;15.10;97.90;;;;;;5000698;28;20503;-69
2022/11/10 10:49:21;;;;;;;8.07;3.33;;;15.20;97.90;;;;;;4999782;28;20075;-69
2022/11/10 10:51:49;;;;;;;9.02;3.50;;;15.20;97.80;;;;;;5000318;28;20083;-69
2022/11/10 10:54:29;;;;;;;7.95;3.28;;;15.30;97.70;;;;;;5001003;28;20034;-69
2022/11/10 10:57:20;;;;;;;10.68;3.42;;;15.40;97.70;;;;;;4999956;28;20042;-70
2022/11/10 10:59:46;;;;;;;9.07;3.20;;;15.40;97.60;;;;;;5000605;28;20026;-70
2022/11/10 11:02:25;;;;;;;8.15;2.58;;;15.60;97.60;;;;;;5000869;28;20036;-70
2022/11/10 11:05:11;;;;;;;6.63;2.47;;;15.60;97.40;;;;;;5000392;28;20708;-70
2022/11/10 11:07:38;;;;;;;6.90;3.22;;;15.70;97.40;;;;;;4998048;28;20045;-69
2022/11/10 11:10:34;;;;;;;10.70;4.30;;;15.80;97.30;;;;;;5004312;28;20026;-69
2022/11/10 11:13:23;;;;;;;9.35;3.15;;;15.80;97.40;;;;;;4999588;28;20109;-69
2022/11/10 11:16:00;;;;;;;12.63;3.22;;;15.90;97.10;;;;;;5000788;28;20022;-70
2022/11/10 11:18:28;;;;;;;7.22;3.45;;;16.00;97.10;;;;;;5000864;28;20073;-69
2022/11/10 11:21:14;;;;;;;7.65;3.70;;;16.00;97.00;;;;;;4999895;28;20104;-70
2022/11/10 11:23:49;;;;;;;8.18;3.33;;;16.10;96.90;;;;;;4999875;28;20794;-69
2022/11/10 11:26:58;;;;;;;10.48;3.30;;;16.10;96.80;;;;;;5001542;28;20087;-70
2022/11/10 11:29:49;;;;;;;10.02;3.50;;;16.20;96.70;;;;;;4995398;28;20026;-69
2022/11/10 11:32:29;;;;;;;7.70;3.10;;;16.20;96.60;;;;;;5000304;28;20034;-69
2022/11/10 11:35:36;;;;;;;8.50;2.90;;;16.10;96.50;;;;;;4998794;28;20029;-69
2022/11/10 11:38:20;;;;;;;8.95;3.70;;;16.20;96.50;;;;;;4997462;28;20058;-69
2022/11/10 11:41:17;;;;;;;7.53;2.88;;;16.20;96.50;;;;;;5000536;28;20517;-69
2022/11/10 11:44:12;;;;;;;8.95;3.72;;;16.20;96.50;;;;;;4999964;28;20057;-69
2022/11/10 11:47:23;;;;;;;8.90;3.30;;;16.10;96.40;;;;;;5001488;28;20037;-69
2022/11/10 11:50:09;;;;;;;6.30;2.88;;;16.10;96.40;;;;;;4999446;28;20027;-69
2022/11/10 11:52:53;;;;;;;6.65;2.95;;;16.10;96.20;;;;;;5000653;28;20026;-69
2022/11/10 11:55:26;;;;;;;7.65;3.28;;;16.10;96.30;;;;;;4999571;28;20100;-69
2022/11/10 11:58:04;;;;;;;10.65;3.25;;;16.10;96.30;;;;;;4999372;28;20042;-70
2022/11/10 12:00:40;;;;;;;8.75;2.90;;;16.10;96.20;;;;;;4998241;28;20064;-69
2022/11/10 12:03:17;;;;;;;7.28;3.33;;;16.10;96.20;;;;;;5003512;28;20030;-70
2022/11/10 12:06:01;;;;;;;10.65;3.35;;;16.20;96.20;;;;;;4997817;28;20117;-70
2022/11/10 12:08:55;;;;;;;9.65;2.53;;;16.20;96.10;;;;;;5000865;28;20038;-70
2022/11/10 12:11:38;;;;;;;7.35;2.90;;;16.30;96.10;;;;;;4999605;28;20057;-69
2022/11/10 12:14:18;;;;;;;6.68;3.03;;;16.30;96.10;;;;;;5001503;28;20069;-69
2022/11/10 12:17:10;;;;;;;7.45;2.60;;;16.30;96.00;;;;;;4998068;28;20048;-70
2022/11/10 12:19:45;;;;;;;6.53;3.20;;;16.40;95.90;;;;;;4998207;28;20118;-70
2022/11/10 12:22:37;;;;;;;8.98;3.45;;;16.40;95.90;;;;;;4998690;28;20022;-70
2022/11/10 12:25:06;;;;;;;6.75;3.10;;;16.30;95.60;;;;;;4999862;28;20061;-70
2022/11/10 12:27:39;;;;;;;6.70;2.75;;;16.30;95.70;;;;;;4999454;28;20057;-70
2022/11/10 12:30:09;;;;;;;7.18;2.72;;;16.30;95.70;;;;;;4998586;28;20928;-70
2022/11/10 12:32:46;;;;;;;9.25;3.35;;;16.30;95.70;;;;;;4997821;28;20081;-71
2022/11/10 12:35:23;;;;;;;7.40;2.83;;;16.40;95.70;;;;;;5000070;28;20489;-68
2022/11/10 12:38:00;;;;;;;7.50;2.63;;;16.40;95.70;;;;;;5015679;28;20038;-70
2022/11/10 12:40:56;;;;;;;7.28;2.80;;;16.40;95.60;;;;;;4999436;28;20133;-70
2022/11/10 12:43:34;;;;;;;9.65;2.97;;;16.40;95.70;;;;;;5003723;28;20069;-70
2022/11/10 12:46:11;;;;;;;7.28;3.13;;;16.40;95.50;;;;;;4998276;28;20041;-70
2022/11/10 12:48:54;;;;;;;4.95;2.72;;;16.40;95.50;;;;;;4998223;28;20034;-70
2022/11/10 12:51:38;;;;;;;7.00;2.53;;;16.50;95.50;;;;;;4998536;28;20027;-70
2022/11/10 12:54:07;;;;;;;6.18;2.85;;;16.50;95.40;;;;;;4997208;28;20030;-70
2022/11/10 12:56:38;;;;;;;10.32;3.08;;;16.50;95.30;;;;;;4997207;28;20076;-70
2022/11/10 12:59:34;;;;;;;8.60;2.65;;;16.40;95.50;;;;;;5000019;28;20029;-70
2022/11/10 13:02:26;;;;;;;7.25;2.83;;;16.40;95.30;;;;;;5003186;28;20064;-70
2022/11/10 13:05:25;;;;;;;7.40;2.53;;;16.40;95.20;;;;;;4997210;28;20026;-71
2022/11/10 13:08:15;;;;;;;7.13;2.42;;;16.40;95.20;;;;;;4998526;28;20029;-70
2022/11/10 13:10:52;;;;;;;4.78;2.30;;;16.40;95.10;;;;;;4996919;28;20038;-70
2022/11/10 13:13:18;;;;;;;4.07;2.05;;;16.50;95.10;;;;;;5003602;28;20482;-69
2022/11/10 13:15:46;;;;;;;6.63;2.45;;;16.50;95.10;;;;;;4998074;28;20041;-70
2022/11/10 13:18:30;;;;;;;9.25;3.42;;;16.50;95.00;;;;;;4999142;28;20387;-70
2022/11/10 13:20:57;;;;;;;7.28;2.50;;;16.50;95.10;;;;;;4996252;28;20058;-69